createdAt,value
2023-03-25T00:18:05.836Z,7.05
2023-03-25T00:20:48.786Z,6.70
2023-03-25T00:23:19.054Z,8.32
2023-03-25T00:25:50.209Z,6.82
2023-03-25T00:28:19.998Z,7.25
2023-03-25T00:30:49.391Z,6.22
2023-03-25T00:33:26.869Z,5.95
2023-03-25T00:35:59.035Z,7.93
2023-03-25T00:38:42.915Z,7.32
2023-03-25T00:41:28.751Z,6.57
2023-03-25T00:43:59.609Z,5.72
2023-03-25T00:46:31.843Z,5.28
2023-03-25T00:49:02.735Z,6.25
2023-03-25T00:51:31.403Z,6.78
2023-03-25T00:54:08.712Z,8.52
2023-03-25T00:56:35.815Z,5.70
2023-03-25T00:59:03.367Z,6.15
2023-03-25T01:01:30.433Z,8.10
2023-03-25T01:04:00.166Z,6.65
2023-03-25T01:06:44.170Z,7.45
2023-03-25T01:09:17.083Z,5.07
2023-03-25T01:11:51.282Z,5.90
2023-03-25T01:14:32.171Z,8.60
2023-03-25T01:17:03.007Z,6.40
2023-03-25T01:19:29.891Z,8.68
2023-03-25T01:22:14.313Z,7.10
2023-03-25T01:24:51.673Z,9.23
2023-03-25T01:27:18.317Z,7.10
2023-03-25T01:30:00.807Z,7.82
2023-03-25T01:32:29.365Z,11.27
2023-03-25T01:34:56.450Z,7.68
2023-03-25T01:37:25.722Z,8.65
2023-03-25T01:40:00.633Z,9.43
2023-03-25T01:42:36.846Z,8.18
2023-03-25T01:45:27.505Z,10.80
2023-03-25T01:48:36.092Z,8.52
2023-03-25T01:51:24.619Z,10.73
2023-03-25T01:53:57.154Z,21.00
2023-03-25T01:56:38.271Z,8.95
2023-03-25T01:59:10.393Z,13.32
2023-03-25T02:01:37.837Z,9.93
2023-03-25T02:06:58.453Z,9.98
2023-03-25T02:09:27.382Z,12.45
2023-03-25T02:11:57.168Z,14.65
2023-03-25T02:14:36.899Z,10.63
2023-03-25T02:17:31.519Z,13.52
2023-03-25T02:20:54.396Z,12.50
2023-03-25T02:24:23.165Z,8.75
2023-03-25T02:27:27.380Z,12.25
2023-03-25T02:31:00.915Z,11.35
2023-03-25T02:34:42.587Z,12.82
2023-03-25T02:37:51.081Z,13.68
2023-03-25T02:40:47.464Z,12.98
2023-03-25T02:43:53.320Z,11.63
2023-03-25T02:46:30.313Z,13.00
2023-03-25T02:49:27.674Z,13.93
2023-03-25T02:52:18.342Z,11.95
2023-03-25T02:54:51.233Z,12.25
2023-03-25T02:57:23.124Z,12.35
2023-03-25T02:59:54.143Z,10.27
2023-03-25T03:02:32.483Z,13.13
2023-03-25T03:04:59.867Z,11.43
2023-03-25T03:07:47.320Z,15.02
2023-03-25T03:10:31.168Z,13.45
2023-03-25T03:13:34.008Z,15.73
2023-03-25T03:16:25.651Z,16.67
2023-03-25T03:19:33.170Z,17.33
2023-03-25T03:22:52.884Z,15.68
2023-03-25T03:25:53.937Z,17.52
2023-03-25T03:29:03.432Z,17.27
2023-03-25T03:32:06.019Z,16.17
2023-03-25T03:35:03.439Z,14.45
2023-03-25T03:38:11.414Z,13.95
2023-03-25T03:40:56.788Z,13.95
2023-03-25T03:43:47.909Z,17.75
2023-03-25T03:46:44.422Z,14.85
2023-03-25T03:49:24.019Z,12.82
2023-03-25T03:52:09.034Z,16.10
2023-03-25T03:55:03.595Z,16.92
2023-03-25T03:57:44.514Z,13.25
2023-03-25T04:00:31.668Z,13.88
2023-03-25T04:03:24.515Z,14.60
2023-03-25T04:06:10.108Z,12.48
2023-03-25T04:09:07.045Z,12.77
2023-03-25T04:11:50.547Z,11.77
2023-03-25T04:14:25.745Z,13.30
2023-03-25T04:16:55.969Z,17.23
2023-03-25T04:19:25.937Z,13.05
2023-03-25T04:21:55.995Z,11.75
2023-03-25T04:24:26.744Z,12.45
2023-03-25T04:27:03.806Z,15.10
2023-03-25T04:29:47.813Z,17.73
2023-03-25T04:32:24.157Z,15.30
2023-03-25T04:34:51.042Z,14.25
2023-03-25T04:37:24.054Z,13.68
2023-03-25T04:40:00.260Z,18.02
2023-03-25T04:42:32.609Z,14.18
2023-03-25T04:45:00.186Z,14.68
2023-03-25T04:47:28.230Z,12.65
2023-03-25T04:49:58.106Z,16.52
2023-03-25T04:52:34.596Z,11.75
2023-03-25T04:55:05.339Z,12.63
2023-03-25T04:57:32.790Z,16.70
2023-03-25T04:59:59.630Z,15.77
2023-03-25T05:02:27.877Z,12.90
2023-03-25T05:05:04.057Z,11.55
2023-03-25T05:07:33.262Z,11.05
2023-03-25T05:10:00.227Z,11.25
2023-03-25T05:12:27.357Z,9.02
2023-03-25T05:14:54.188Z,8.95
2023-03-25T05:17:20.941Z,7.57
2023-03-25T05:19:47.880Z,5.90
2023-03-25T05:22:23.339Z,5.38
2023-03-25T05:24:57.709Z,9.27
2023-03-25T05:27:28.632Z,5.18
2023-03-25T05:30:16.256Z,6.93
2023-03-25T05:32:45.787Z,11.23
2023-03-25T05:38:02.018Z,11.80
2023-03-25T05:40:28.941Z,11.10
2023-03-25T05:43:06.899Z,9.13
2023-03-25T05:45:43.532Z,10.32
2023-03-25T05:48:35.746Z,9.98
2023-03-25T05:51:15.931Z,8.68
2023-03-25T05:53:53.320Z,9.93
2023-03-25T05:56:29.576Z,10.85
2023-03-25T05:59:05.067Z,20.50
2023-03-25T06:01:42.366Z,7.97
2023-03-25T06:04:13.489Z,11.77
2023-03-25T06:06:43.566Z,8.10
2023-03-25T07:39:54.544Z,3.83
2023-03-25T07:42:30.576Z,4.15
2023-03-25T07:44:57.294Z,4.13
2023-03-25T07:47:36.065Z,4.20
2023-03-25T07:50:06.202Z,4.10
2023-03-25T07:52:33.050Z,4.28
2023-03-25T07:55:00.774Z,3.90
2023-03-25T07:57:30.610Z,4.03
2023-03-25T07:59:57.375Z,3.35
2023-03-25T08:02:37.168Z,5.45
2023-03-25T08:05:42.048Z,3.67
2023-03-25T08:08:09.942Z,6.35
2023-03-25T08:10:36.657Z,6.32
2023-03-25T08:13:12.318Z,5.72
2023-03-25T08:15:46.116Z,5.28
2023-03-25T08:18:13.418Z,7.85
2023-03-25T08:20:43.491Z,5.25
2023-03-25T08:23:10.625Z,7.22
2023-03-25T08:25:49.529Z,5.57
2023-03-25T08:28:27.054Z,5.82
2023-03-25T08:31:02.478Z,8.90
2023-03-25T08:33:34.482Z,5.40
2023-03-25T08:36:16.607Z,4.72
2023-03-25T08:38:48.281Z,4.95
2023-03-25T08:41:15.986Z,5.82
2023-03-25T08:43:46.433Z,4.75
2023-03-25T08:46:14.218Z,5.80
2023-03-25T08:48:49.582Z,5.85
2023-03-25T08:51:17.043Z,4.63
2023-03-25T08:53:49.286Z,5.68
2023-03-25T08:56:18.904Z,7.43
2023-03-25T08:58:45.741Z,8.55
2023-03-25T09:01:15.207Z,4.30
2023-03-25T09:03:44.885Z,5.10
2023-03-25T09:06:14.646Z,6.63
2023-03-25T09:08:50.456Z,6.57
2023-03-25T09:11:37.004Z,9.18
2023-03-25T09:14:05.212Z,5.85
2023-03-25T09:16:53.465Z,9.30
2023-03-25T09:19:20.201Z,7.30
2023-03-25T09:21:55.407Z,5.13
2023-03-25T09:24:35.963Z,5.38
2023-03-25T09:27:03.964Z,6.80
2023-03-25T09:29:32.566Z,6.43
2023-03-25T09:32:01.118Z,7.28
2023-03-25T09:34:28.710Z,4.47
2023-03-25T09:36:56.673Z,4.43
2023-03-25T09:39:32.470Z,5.45
2023-03-25T09:42:54.032Z,5.47
2023-03-25T09:45:50.266Z,8.80
2023-03-25T09:48:47.016Z,5.03
2023-03-25T09:51:35.930Z,6.55
2023-03-25T09:54:48.792Z,4.75
2023-03-25T09:57:27.221Z,8.73
2023-03-25T09:59:57.351Z,8.90
2023-03-25T10:02:51.109Z,5.68
2023-03-25T10:06:17.613Z,6.25
2023-03-25T10:09:34.568Z,6.15
2023-03-25T10:13:20.012Z,4.60
2023-03-25T10:16:20.950Z,5.53
2023-03-25T10:19:34.190Z,5.90
2023-03-25T10:22:44.613Z,9.50
2023-03-25T10:47:08.525Z,7.20
2023-03-25T10:49:44.130Z,4.97
2023-03-25T11:29:35.263Z,4.72
2023-03-25T12:07:23.266Z,4.97
2023-03-25T12:23:20.066Z,6.55
2023-03-25T12:26:14.544Z,5.00
2023-03-25T12:29:16.135Z,3.63
2023-03-25T12:36:06.738Z,2.70
2023-03-25T12:38:36.434Z,4.50
2023-03-25T12:41:30.021Z,3.08
2023-03-25T12:44:32.006Z,2.40
2023-03-25T12:47:27.208Z,4.05
2023-03-25T12:50:33.723Z,2.25
2023-03-25T12:53:38.441Z,2.53
2023-03-25T12:56:59.418Z,2.50
2023-03-25T12:59:53.871Z,2.05
2023-03-25T13:03:00.864Z,2.42
2023-03-25T13:05:58.338Z,3.60
2023-03-25T13:08:50.772Z,2.97
2023-03-25T13:12:23.301Z,3.78
2023-03-25T13:15:36.571Z,3.78
2023-03-25T13:18:23.874Z,2.95
2023-03-25T13:21:36.524Z,2.50
2023-03-25T13:24:27.355Z,2.65
2023-03-25T13:26:57.210Z,3.10
2023-03-25T13:29:46.499Z,3.33
2023-03-25T13:32:52.813Z,2.80
2023-03-25T13:36:05.829Z,2.88
2023-03-25T13:38:49.235Z,3.00
2023-03-25T13:41:52.098Z,3.92
2023-03-25T13:50:36.470Z,3.63
2023-03-25T13:56:35.632Z,2.95
2023-03-25T14:00:07.590Z,3.55
2023-03-25T14:25:57.662Z,2.88
2023-03-25T14:43:01.267Z,4.85
2023-03-25T15:09:15.035Z,8.73
2023-03-25T15:12:00.418Z,3.65
2023-03-25T15:14:48.646Z,8.95
2023-03-25T15:17:45.996Z,3.95
2023-03-25T15:20:37.820Z,4.68
2023-03-25T15:23:59.555Z,6.40
2023-03-25T15:26:45.664Z,3.17
2023-03-25T15:30:21.392Z,5.38
2023-03-25T15:33:17.992Z,7.60
2023-03-25T15:37:00.086Z,5.20
2023-03-25T15:40:06.639Z,6.75
2023-03-25T15:43:05.429Z,4.85
2023-03-25T15:46:23.118Z,6.53
2023-03-25T15:49:23.330Z,4.00
2023-03-25T15:52:42.646Z,6.40
2023-03-25T15:55:28.074Z,7.45
2023-03-25T15:58:04.372Z,7.18
2023-03-25T16:00:57.908Z,7.25
2023-03-25T16:03:45.118Z,8.55
2023-03-25T16:06:18.253Z,10.13
2023-03-25T16:08:49.794Z,8.18
2023-03-25T16:11:22.485Z,5.88
2023-03-25T16:14:06.584Z,5.47
2023-03-25T16:16:54.536Z,5.18
2023-03-25T16:19:51.892Z,6.07
2023-03-25T16:22:33.221Z,8.45
2023-03-25T16:25:18.382Z,4.40
2023-03-25T16:27:55.886Z,3.70
2023-03-25T16:30:38.314Z,6.53
2023-03-25T16:33:07.944Z,3.58
2023-03-25T16:36:17.571Z,4.30
2023-03-25T16:38:44.564Z,4.68
2023-03-25T16:41:16.175Z,5.22
2023-03-25T16:43:46.063Z,5.05
2023-03-25T16:46:23.506Z,4.43
2023-03-25T16:48:57.219Z,6.80
2023-03-25T16:51:42.649Z,4.63
2023-03-25T16:54:36.105Z,5.25
2023-03-25T16:57:10.487Z,3.55
2023-03-25T16:59:50.954Z,7.43
2023-03-25T17:03:01.830Z,4.05
2023-03-25T17:06:19.430Z,3.53
2023-03-25T17:09:04.784Z,5.53
2023-03-25T17:11:33.303Z,4.50
2023-03-25T17:14:07.668Z,7.38
2023-03-25T17:19:15.968Z,6.03
2023-03-25T17:22:06.141Z,3.45
2023-03-25T17:25:47.804Z,4.80
2023-03-25T17:28:58.038Z,4.70
2023-03-25T17:31:30.848Z,4.32
2023-03-25T17:34:47.050Z,6.20
2023-03-25T17:37:15.660Z,6.30
2023-03-25T17:39:51.075Z,4.95
2023-03-25T17:42:26.776Z,7.25
2023-03-25T17:44:54.062Z,5.05
2023-03-25T17:47:21.818Z,5.47
2023-03-25T17:49:51.212Z,6.50
2023-03-25T17:52:20.162Z,4.82
2023-03-25T17:54:47.095Z,5.43
2023-03-25T17:57:19.686Z,5.32
2023-03-25T17:59:55.645Z,6.00
2023-03-25T18:02:23.436Z,6.22
2023-03-25T18:04:53.263Z,6.90
2023-03-25T18:07:21.293Z,5.13
2023-03-25T18:09:59.706Z,5.38
2023-03-25T18:12:35.192Z,5.90
2023-03-25T18:15:13.729Z,5.60
2023-03-25T18:17:51.809Z,7.43
2023-03-25T18:20:28.637Z,5.22
2023-03-25T18:22:55.891Z,5.38
2023-03-25T18:25:23.947Z,5.30
2023-03-25T18:27:57.807Z,4.95
2023-03-25T18:30:55.829Z,5.38
2023-03-25T18:33:24.370Z,3.92
2023-03-25T18:35:56.250Z,7.40
2023-03-25T19:08:36.971Z,3.95
2023-03-25T19:57:33.908Z,4.20
2023-03-25T20:19:43.394Z,8.77
2023-03-25T20:49:22.290Z,13.15
2023-03-25T20:54:38.304Z,13.40
2023-03-25T20:57:10.502Z,10.73
2023-03-25T21:51:30.238Z,10.75
2023-03-25T21:56:46.983Z,9.40
2023-03-25T21:59:13.753Z,13.23
2023-03-25T22:01:45.595Z,9.80
2023-03-25T22:04:12.559Z,9.20
2023-03-25T22:06:42.238Z,11.05
2023-03-25T22:09:09.244Z,13.88
2023-03-25T22:11:42.020Z,10.20
2023-03-25T22:14:09.691Z,10.65
2023-03-25T22:16:37.812Z,9.23
2023-03-25T22:19:08.049Z,17.63
2023-03-25T22:21:37.508Z,12.10
2023-03-25T22:24:18.249Z,17.13
2023-03-25T22:26:48.123Z,10.07
2023-03-25T22:29:18.333Z,13.40
2023-03-25T22:31:50.800Z,13.70
2023-03-25T22:34:17.452Z,15.05
2023-03-25T22:36:52.863Z,12.73
2023-03-25T22:39:23.088Z,17.35
2023-03-25T22:41:50.527Z,16.65
2023-03-25T22:44:18.528Z,12.13
2023-03-25T22:46:59.560Z,15.25
2023-03-25T22:49:26.448Z,18.70
2023-03-25T22:51:54.077Z,14.05
2023-03-25T22:54:21.399Z,19.75
2023-03-25T22:56:48.666Z,14.85
2023-03-25T22:59:15.628Z,14.68
2023-03-25T23:01:48.804Z,20.95
2023-03-25T23:04:16.136Z,15.20
2023-03-25T23:07:00.512Z,11.32
2023-03-25T23:09:54.163Z,13.15
2023-03-25T23:12:25.577Z,12.10
2023-03-25T23:14:59.186Z,13.45
2023-03-25T23:17:28.574Z,19.33
2023-03-25T23:19:55.411Z,13.45
2023-03-25T23:22:22.199Z,14.02
2023-03-25T23:24:48.859Z,17.45
2023-03-25T23:27:18.498Z,16.88
2023-03-25T23:29:48.428Z,18.95
2023-03-25T23:32:16.427Z,25.77
2023-03-25T23:34:43.054Z,16.13
2023-03-25T23:37:12.105Z,20.65
2023-03-25T23:39:48.226Z,16.67
2023-03-25T23:42:14.894Z,24.30
2023-03-25T23:44:50.947Z,12.68
2023-03-25T23:47:17.638Z,17.48
2023-03-25T23:49:44.437Z,24.73
2023-03-25T23:52:13.953Z,14.63
2023-03-25T23:54:44.434Z,13.43
2023-03-25T23:57:12.539Z,15.73
2023-03-25T23:59:41.760Z,16.60
